createdAt,value
2018-09-28T00:00:54.357Z,5.73
2018-09-28T00:03:28.526Z,5.83
2018-09-28T00:06:02.191Z,7.43
2018-09-28T00:08:35.913Z,5.50
2018-09-28T00:11:09.484Z,7.17
2018-09-28T00:13:43.119Z,6.67
2018-09-28T00:16:16.708Z,5.47
2018-09-28T00:18:50.288Z,5.47
2018-09-28T00:21:24.021Z,6.00
2018-09-28T00:23:57.636Z,5.40
2018-09-28T00:26:31.225Z,7.20
2018-09-28T00:29:04.832Z,6.65
2018-09-28T00:31:38.440Z,7.80
2018-09-28T00:34:12.109Z,5.73
2018-09-28T00:36:45.708Z,5.77
2018-09-28T00:39:19.337Z,5.60
2018-09-28T00:41:52.927Z,5.67
2018-09-28T00:44:26.813Z,5.92
2018-09-28T00:47:00.526Z,5.62
2018-09-28T00:49:34.152Z,5.87
2018-09-28T00:52:07.788Z,5.60
2018-09-28T00:54:41.446Z,6.50
2018-09-28T00:57:15.051Z,5.83
2018-09-28T00:59:48.676Z,6.45
2018-09-28T01:02:22.266Z,6.37
2018-09-28T01:04:55.878Z,6.37
2018-09-28T01:07:29.481Z,5.78
2018-09-28T01:10:03.279Z,5.80
2018-09-28T01:12:37.227Z,6.22
2018-09-28T01:15:10.858Z,9.48
2018-09-28T01:17:44.627Z,11.15
2018-09-28T01:20:18.540Z,15.68
2018-09-28T01:22:52.147Z,14.73
2018-09-28T01:25:26.142Z,15.93
2018-09-28T01:28:00.825Z,14.15
2018-09-28T01:30:34.425Z,15.95
2018-09-28T01:33:08.071Z,15.03
2018-09-28T01:35:41.656Z,15.28
2018-09-28T01:38:15.282Z,15.28
2018-09-28T01:40:48.887Z,17.40
2018-09-28T01:43:22.663Z,18.92
2018-09-28T01:45:56.299Z,17.27
2018-09-28T01:48:29.897Z,18.65
2018-09-28T01:51:03.500Z,15.38
2018-09-28T01:53:37.126Z,12.78
2018-09-28T01:56:10.707Z,16.27
2018-09-28T01:58:44.313Z,10.78
2018-09-28T02:01:17.916Z,12.65
2018-09-28T02:03:51.572Z,13.10
2018-09-28T02:06:25.149Z,15.60
2018-09-28T02:08:59.302Z,13.98
2018-09-28T02:11:33.016Z,13.48
2018-09-28T02:14:06.673Z,16.75
2018-09-28T02:16:40.282Z,13.05
2018-09-28T02:19:13.901Z,12.07
2018-09-28T02:21:47.506Z,15.30
2018-09-28T02:24:21.151Z,13.68
2018-09-28T02:26:54.773Z,21.15
2018-09-28T02:29:28.394Z,19.15
2018-09-28T02:32:01.986Z,25.77
2018-09-28T02:34:35.680Z,24.30
2018-09-28T02:37:09.306Z,21.25
2018-09-28T02:39:42.918Z,21.17
2018-09-28T02:42:16.520Z,19.85
2018-09-28T02:44:50.128Z,21.93
2018-09-28T02:47:23.859Z,24.35
2018-09-28T02:49:57.577Z,21.27
2018-09-28T02:52:31.176Z,19.37
2018-09-28T02:55:04.843Z,18.05
2018-09-28T02:57:38.424Z,16.05
2018-09-28T03:00:12.068Z,19.80
2018-09-28T03:02:45.731Z,18.42
2018-09-28T03:05:19.347Z,15.48
2018-09-28T03:07:53.194Z,15.05
2018-09-28T03:10:26.800Z,16.48
2018-09-28T03:13:00.704Z,15.38
2018-09-28T03:15:34.578Z,17.10
2018-09-28T03:18:08.395Z,14.55
2018-09-28T03:20:42.018Z,17.23
2018-09-28T03:23:15.630Z,18.80
2018-09-28T03:25:49.264Z,15.40
2018-09-28T03:28:22.901Z,18.25
2018-09-28T03:30:56.587Z,16.90
2018-09-28T03:33:30.205Z,19.57
2018-09-28T03:36:03.889Z,24.52
2018-09-28T03:38:37.505Z,23.42
2018-09-28T03:41:11.113Z,24.82
2018-09-28T03:43:44.706Z,19.65
2018-09-28T03:46:18.341Z,17.87
2018-09-28T03:48:51.938Z,12.13
2018-09-28T03:51:25.634Z,13.78
2018-09-28T03:53:59.257Z,14.30
2018-09-28T03:56:32.847Z,7.20
2018-09-28T03:59:06.665Z,8.75
2018-09-28T04:01:42.385Z,10.85
2018-09-28T04:04:18.219Z,8.95
2018-09-28T04:06:53.895Z,8.53
2018-09-28T04:09:27.591Z,7.80
2018-09-28T04:12:01.335Z,14.18
2018-09-28T04:14:34.959Z,7.00
2018-09-28T04:17:08.600Z,5.08
2018-09-28T04:19:42.185Z,5.85
2018-09-28T04:22:15.860Z,6.35
2018-09-28T04:24:49.501Z,6.53
2018-09-28T04:27:23.103Z,8.75
2018-09-28T04:29:56.751Z,8.03
2018-09-28T04:32:30.376Z,8.00
2018-09-28T04:35:04.963Z,6.72
2018-09-28T04:37:38.605Z,5.92
2018-09-28T04:40:12.242Z,7.70
2018-09-28T04:42:45.845Z,11.25
2018-09-28T04:45:19.615Z,9.73
2018-09-28T04:47:53.118Z,8.00
2018-09-28T04:50:26.743Z,8.08
2018-09-28T04:53:00.346Z,9.43
2018-09-28T04:55:34.556Z,11.48
2018-09-28T04:58:08.153Z,8.10
2018-09-28T05:00:41.775Z,11.28
2018-09-28T05:03:15.541Z,13.78
2018-09-28T05:05:49.446Z,10.35
2018-09-28T05:08:23.032Z,11.65
2018-09-28T05:10:56.659Z,11.73
2018-09-28T05:13:30.298Z,9.45
2018-09-28T05:16:03.969Z,10.93
2018-09-28T05:18:37.545Z,9.35
2018-09-28T05:21:11.231Z,11.97
2018-09-28T05:23:44.884Z,12.75
2018-09-28T05:26:18.501Z,11.88
2018-09-28T05:28:52.227Z,13.35
2018-09-28T05:31:26.017Z,14.23
2018-09-28T05:33:59.547Z,12.30
2018-09-28T05:36:33.147Z,9.03
2018-09-28T05:39:08.328Z,11.08
2018-09-28T05:41:41.953Z,12.30
2018-09-28T05:44:15.542Z,15.85
2018-09-28T05:46:49.336Z,11.10
2018-09-28T05:49:22.942Z,10.28
2018-09-28T05:51:56.555Z,9.60
2018-09-28T05:54:30.170Z,15.50
2018-09-28T05:57:03.790Z,15.03
2018-09-28T05:59:42.585Z,10.10
2018-09-28T06:02:21.509Z,12.25
2018-09-28T06:05:00.486Z,11.35
2018-09-28T06:07:34.087Z,14.23
2018-09-28T06:10:07.729Z,17.20
2018-09-28T06:12:41.477Z,17.65
2018-09-28T06:15:15.524Z,18.40
2018-09-28T06:17:49.247Z,13.43
2018-09-28T06:20:22.854Z,10.35
2018-09-28T06:22:56.509Z,11.55
2018-09-28T06:25:30.132Z,11.88
2018-09-28T06:28:03.762Z,15.48
2018-09-28T06:30:37.399Z,13.00
2018-09-28T06:33:11.010Z,14.05
2018-09-28T06:35:44.650Z,16.15
2018-09-28T06:38:18.286Z,12.20
2018-09-28T06:40:51.879Z,18.52
2018-09-28T06:43:25.648Z,9.83
2018-09-28T06:45:59.992Z,13.72
2018-09-28T06:48:33.622Z,17.37
2018-09-28T06:51:07.279Z,14.83
2018-09-28T06:53:40.896Z,11.22
2018-09-28T06:56:14.505Z,17.98
2018-09-28T06:58:48.123Z,8.95
2018-09-28T07:01:21.923Z,13.88
2018-09-28T07:03:55.566Z,16.23
2018-09-28T07:06:29.179Z,14.28
2018-09-28T07:09:02.853Z,11.45
2018-09-28T07:11:36.453Z,13.00
2018-09-28T07:14:10.905Z,16.75
2018-09-28T07:16:44.649Z,12.98
2018-09-28T07:19:18.224Z,9.78
2018-09-28T07:21:51.787Z,13.72
2018-09-28T07:24:26.382Z,14.53
2018-09-28T07:26:59.960Z,12.55
2018-09-28T07:29:33.588Z,14.65
2018-09-28T07:32:07.374Z,16.73
2018-09-28T07:34:40.988Z,13.65
2018-09-28T07:37:14.784Z,11.63
2018-09-28T07:39:48.249Z,12.05
2018-09-28T07:42:21.891Z,17.07
2018-09-28T07:44:55.504Z,17.67
2018-09-28T07:47:29.090Z,13.88
2018-09-28T07:50:02.703Z,12.55
2018-09-28T07:52:36.304Z,12.45
2018-09-28T07:55:10.129Z,13.30
2018-09-28T07:57:43.718Z,13.13
2018-09-28T08:00:17.312Z,15.20
2018-09-28T08:02:50.903Z,9.10
2018-09-28T08:05:24.519Z,15.93
2018-09-28T08:07:58.124Z,15.58
2018-09-28T08:10:31.768Z,10.00
2018-09-28T08:13:05.539Z,13.98
2018-09-28T08:15:39.148Z,16.97
2018-09-28T08:18:12.762Z,13.68
2018-09-28T08:20:46.460Z,10.50
2018-09-28T08:23:20.223Z,20.97
2018-09-28T08:25:53.834Z,15.60
2018-09-28T08:28:27.595Z,31.87
2018-09-28T08:31:01.237Z,26.37
2018-09-28T08:33:34.866Z,17.65
2018-09-28T08:36:08.477Z,8.78
2018-09-28T08:38:42.093Z,18.20
2018-09-28T08:41:15.719Z,12.88
2018-09-28T08:43:49.352Z,12.25
2018-09-28T08:46:22.936Z,15.75
2018-09-28T08:48:56.558Z,7.37
2018-09-28T08:51:30.331Z,14.07
2018-09-28T08:54:03.981Z,10.05
2018-09-28T08:56:37.574Z,8.75
2018-09-28T08:59:11.200Z,7.33
2018-09-28T09:01:44.830Z,8.93
2018-09-28T09:04:18.583Z,5.60
2018-09-28T09:06:52.158Z,7.00
2018-09-28T09:09:25.733Z,14.68
2018-09-28T09:11:59.364Z,8.15
2018-09-28T09:14:33.003Z,7.97
2018-09-28T09:17:06.685Z,10.45
2018-09-28T09:19:40.345Z,10.30
2018-09-28T09:22:13.952Z,8.13
2018-09-28T09:24:47.590Z,10.20
2018-09-28T09:27:21.190Z,7.60
2018-09-28T09:29:54.979Z,7.83
2018-09-28T09:32:28.569Z,10.23
2018-09-28T09:35:02.195Z,6.65
2018-09-28T09:37:35.904Z,5.33
2018-09-28T09:40:09.694Z,8.48
2018-09-28T09:42:43.319Z,8.55
2018-09-28T09:45:17.146Z,9.93
2018-09-28T09:47:50.850Z,9.35
2018-09-28T09:50:24.459Z,6.35
2018-09-28T09:52:58.185Z,7.72
2018-09-28T09:55:31.806Z,7.75
2018-09-28T09:58:05.585Z,6.50
2018-09-28T10:00:44.392Z,8.55
2018-09-28T10:03:23.190Z,4.78
2018-09-28T10:05:56.851Z,7.47
2018-09-28T10:08:30.525Z,5.55
2018-09-28T10:11:04.156Z,8.18
2018-09-28T10:13:37.791Z,4.28
2018-09-28T10:16:11.434Z,5.87
2018-09-28T10:18:45.657Z,4.58
2018-09-28T10:21:19.452Z,4.37
2018-09-28T10:23:53.221Z,6.25
2018-09-28T10:26:27.104Z,7.97
2018-09-28T10:29:15.380Z,6.20
2018-09-28T10:32:20.903Z,7.15
2018-09-28T10:34:56.079Z,5.40
2018-09-28T10:37:30.743Z,6.40
2018-09-28T10:40:04.522Z,5.97
2018-09-28T10:42:38.376Z,6.25
2018-09-28T10:45:12.183Z,10.78
2018-09-28T10:47:45.770Z,5.53
2018-09-28T10:50:19.519Z,3.85
2018-09-28T10:52:53.714Z,8.28
2018-09-28T10:55:27.494Z,4.55
2018-09-28T10:58:01.193Z,7.47
2018-09-28T11:00:34.906Z,7.42
2018-09-28T11:03:08.526Z,5.83
2018-09-28T11:05:42.200Z,5.03
2018-09-28T11:08:15.806Z,4.62
2018-09-28T11:10:49.580Z,5.10
2018-09-28T11:13:23.328Z,3.85
2018-09-28T11:15:56.945Z,6.40
2018-09-28T11:18:30.690Z,2.80
2018-09-28T11:21:04.320Z,6.05
2018-09-28T11:23:38.767Z,5.95
2018-09-28T11:26:12.392Z,5.58
2018-09-28T11:28:45.977Z,4.83
2018-09-28T11:31:19.697Z,5.00
2018-09-28T11:33:53.459Z,5.55
2018-09-28T11:36:27.080Z,6.85
2018-09-28T11:39:00.699Z,7.90
2018-09-28T11:41:34.396Z,6.35
2018-09-28T11:44:07.992Z,8.78
2018-09-28T11:46:41.628Z,6.40
2018-09-28T11:49:15.357Z,7.08
2018-09-28T11:51:49.180Z,6.42
2018-09-28T11:54:22.750Z,6.72
2018-09-28T11:56:56.428Z,5.45
2018-09-28T11:59:30.046Z,3.50
2018-09-28T12:02:03.732Z,7.35
2018-09-28T12:04:37.347Z,8.95
2018-09-28T12:07:11.172Z,4.92
2018-09-28T12:09:44.878Z,7.40
2018-09-28T12:12:18.839Z,5.50
2018-09-28T12:14:52.588Z,4.72
2018-09-28T12:17:26.351Z,4.78
2018-09-28T12:19:59.932Z,5.90
2018-09-28T12:22:38.850Z,3.60
2018-09-28T12:25:12.543Z,5.53
2018-09-28T12:27:46.344Z,5.97
2018-09-28T12:30:20.032Z,9.15
2018-09-28T12:32:53.791Z,3.45
2018-09-28T12:35:27.620Z,3.60
2018-09-28T12:38:01.489Z,4.92
2018-09-28T12:40:35.219Z,4.55
2018-09-28T12:43:08.973Z,4.60
2018-09-28T12:45:42.736Z,3.67
2018-09-28T12:48:16.399Z,4.67
2018-09-28T12:50:50.064Z,2.55
2018-09-28T12:53:23.795Z,5.50
2018-09-28T12:55:57.588Z,4.90
2018-09-28T12:58:31.225Z,3.30
2018-09-28T13:01:05.276Z,4.35
2018-09-28T13:03:38.809Z,11.10
2018-09-28T13:06:12.560Z,2.87
2018-09-28T13:08:46.652Z,4.70
2018-09-28T13:11:20.481Z,3.62
2018-09-28T13:13:54.242Z,3.47
2018-09-28T13:16:29.003Z,3.90
2018-09-28T13:19:02.797Z,3.27
2018-09-28T13:21:36.667Z,6.22
2018-09-28T13:24:10.908Z,6.37
2018-09-28T13:26:44.956Z,4.47
2018-09-28T13:29:18.730Z,4.05
2018-09-28T13:31:52.453Z,4.92
2018-09-28T13:34:26.287Z,3.67
2018-09-28T13:37:00.116Z,6.37
2018-09-28T13:39:34.107Z,4.58
2018-09-28T13:42:08.007Z,3.90
2018-09-28T13:44:41.879Z,4.58
2018-09-28T13:47:15.487Z,5.37
2018-09-28T13:49:49.149Z,5.53
2018-09-28T13:52:22.778Z,4.55
2018-09-28T13:54:56.432Z,5.03
2018-09-28T13:57:30.047Z,3.33
2018-09-28T14:00:03.695Z,2.52
2018-09-28T14:02:37.345Z,5.28
2018-09-28T14:05:11.110Z,7.87
2018-09-28T14:07:44.717Z,3.37
2018-09-28T14:10:18.364Z,4.00
2018-09-28T14:12:52.094Z,5.22
2018-09-28T14:15:25.712Z,3.67
2018-09-28T14:17:59.384Z,4.10
2018-09-28T14:20:33.254Z,4.40
2018-09-28T14:23:07.063Z,4.97
2018-09-28T14:25:40.840Z,3.22
2018-09-28T14:28:14.655Z,9.83
2018-09-28T14:30:48.642Z,5.25
2018-09-28T14:33:22.670Z,3.42
2018-09-28T14:35:56.426Z,6.00
2018-09-28T14:38:30.040Z,7.25
2018-09-28T14:41:03.936Z,5.83
2018-09-28T14:43:37.646Z,5.95
2018-09-28T14:46:11.300Z,6.83
2018-09-28T14:48:44.926Z,4.58
2018-09-28T14:51:18.567Z,3.27
2018-09-28T14:53:52.158Z,5.67
2018-09-28T14:56:26.980Z,4.67
2018-09-28T14:59:01.066Z,6.45
2018-09-28T15:01:34.685Z,3.95
2018-09-28T15:04:08.855Z,5.45
2018-09-28T15:06:43.560Z,4.33
2018-09-28T15:09:17.401Z,3.02
2018-09-28T15:11:51.092Z,5.25
2018-09-28T15:14:24.886Z,2.62
2018-09-28T15:16:58.488Z,3.10
2018-09-28T15:19:32.073Z,3.95
2018-09-28T15:22:05.723Z,5.97
2018-09-28T15:24:39.409Z,7.62
2018-09-28T15:27:13.529Z,3.50
2018-09-28T15:29:47.843Z,3.80
2018-09-28T15:32:21.473Z,2.22
2018-09-28T15:34:55.109Z,3.95
2018-09-28T15:37:28.732Z,5.95
2018-09-28T15:40:02.483Z,4.65
2018-09-28T15:42:36.132Z,3.22
2018-09-28T15:45:09.874Z,4.30
2018-09-28T15:47:43.573Z,4.17
2018-09-28T15:50:17.162Z,4.40
2018-09-28T15:52:52.076Z,5.92
2018-09-28T15:55:25.798Z,6.35
2018-09-28T15:57:59.497Z,4.37
2018-09-28T16:00:33.395Z,5.35
2018-09-28T16:03:07.275Z,4.28
2018-09-28T16:05:40.886Z,5.58
2018-09-28T16:08:14.509Z,3.05
2018-09-28T16:10:48.232Z,2.35
2018-09-28T16:13:21.932Z,3.15
2018-09-28T16:15:55.987Z,5.85
2018-09-28T16:18:30.311Z,4.97
2018-09-28T16:21:04.371Z,4.42
2018-09-28T16:23:38.522Z,5.97
2018-09-28T16:26:46.962Z,4.70
2018-09-28T16:29:20.599Z,6.28
2018-09-28T16:31:54.373Z,5.45
2018-09-28T16:34:29.319Z,4.03
2018-09-28T16:37:03.212Z,10.90
2018-09-28T16:39:37.619Z,5.00
2018-09-28T16:42:11.470Z,6.90
2018-09-28T16:44:45.683Z,6.08
2018-09-28T16:47:19.824Z,6.15
2018-09-28T16:49:53.939Z,5.67
2018-09-28T16:52:28.185Z,7.17
2018-09-28T16:55:02.309Z,8.75
2018-09-28T16:57:36.430Z,7.30
2018-09-28T17:00:10.391Z,6.05
2018-09-28T17:02:44.555Z,7.72
2018-09-28T17:05:19.010Z,9.20
2018-09-28T17:07:52.789Z,9.15
2018-09-28T17:10:26.435Z,8.48
2018-09-28T17:13:00.106Z,8.03
2018-09-28T17:15:33.721Z,8.48
2018-09-28T17:18:07.505Z,10.18
2018-09-28T17:20:41.284Z,7.17
2018-09-28T17:23:15.219Z,7.33
2018-09-28T17:25:48.981Z,8.90
2018-09-28T17:28:22.685Z,10.53
2018-09-28T17:30:56.498Z,5.80
2018-09-28T17:33:30.222Z,8.03
2018-09-28T17:36:03.911Z,12.60
2018-09-28T17:38:37.638Z,5.97
2018-09-28T17:41:11.303Z,8.03
2018-09-28T17:43:44.944Z,8.25
2018-09-28T17:46:18.589Z,7.28
2018-09-28T17:48:52.236Z,7.87
2018-09-28T17:51:25.905Z,9.13
2018-09-28T17:53:59.659Z,10.10
2018-09-28T17:56:33.247Z,6.10
2018-09-28T17:59:06.924Z,10.72
2018-09-28T18:01:40.553Z,6.67
2018-09-28T18:04:14.270Z,8.80
2018-09-28T18:06:47.884Z,6.53
2018-09-28T18:09:21.521Z,9.13
2018-09-28T18:11:55.122Z,7.90
2018-09-28T18:14:29.951Z,7.25
2018-09-28T18:17:03.624Z,7.70
2018-09-28T18:19:37.402Z,4.87
2018-09-28T18:22:11.117Z,10.08
2018-09-28T18:24:44.825Z,6.97
2018-09-28T18:27:18.640Z,6.53
2018-09-28T18:29:52.265Z,8.60
2018-09-28T18:32:25.909Z,6.80
2018-09-28T18:34:59.678Z,11.85
2018-09-28T18:37:33.321Z,10.90
2018-09-28T18:40:07.467Z,6.80
2018-09-28T18:42:41.191Z,14.10
2018-09-28T18:45:14.895Z,8.00
2018-09-28T18:47:48.606Z,6.62
2018-09-28T18:50:22.299Z,6.33
2018-09-28T18:52:56.119Z,7.90
2018-09-28T18:55:29.725Z,6.50
2018-09-28T18:58:03.324Z,8.05
2018-09-28T19:00:37.351Z,10.15
2018-09-28T19:03:11.168Z,12.10
2018-09-28T19:05:44.723Z,6.90
2018-09-28T19:08:18.289Z,6.22
2018-09-28T19:10:52.076Z,7.40
2018-09-28T19:13:25.812Z,8.28
2018-09-28T19:15:59.462Z,8.55
2018-09-28T19:18:33.034Z,16.97
2018-09-28T19:21:06.664Z,20.00
2018-09-28T19:23:40.317Z,10.38
2018-09-28T19:26:13.972Z,11.97
2018-09-28T19:28:47.570Z,9.55
2018-09-28T19:31:21.201Z,10.95
2018-09-28T19:33:54.787Z,7.53
2018-09-28T19:36:28.393Z,9.47
2018-09-28T19:39:02.122Z,5.37
2018-09-28T19:41:35.762Z,6.40
2018-09-28T19:44:11.128Z,6.03
2018-09-28T19:46:44.737Z,8.23
2018-09-28T19:49:18.392Z,10.37
2018-09-28T19:51:51.972Z,6.87
2018-09-28T19:54:25.605Z,6.43
2018-09-28T19:56:59.264Z,8.27
2018-09-28T19:59:32.867Z,7.87
2018-09-28T20:02:06.638Z,8.03
2018-09-28T20:04:40.211Z,9.37
2018-09-28T20:07:14.001Z,6.93
2018-09-28T20:09:47.594Z,10.67
2018-09-28T20:12:21.232Z,10.97
2018-09-28T20:14:54.891Z,7.67
2018-09-28T20:17:28.577Z,7.37
2018-09-28T20:20:02.202Z,7.07
2018-09-28T20:22:35.897Z,5.77
2018-09-28T20:25:10.359Z,7.40
2018-09-28T20:27:44.001Z,8.87
2018-09-28T20:30:17.638Z,8.40
2018-09-28T20:32:51.405Z,7.77
2018-09-28T20:35:25.102Z,10.17
2018-09-28T20:37:59.791Z,7.77
2018-09-28T20:40:33.540Z,7.07
2018-09-28T20:43:07.188Z,8.37
2018-09-28T20:45:41.438Z,7.57
2018-09-28T20:48:15.205Z,10.23
2018-09-28T20:50:48.992Z,7.07
2018-09-28T20:53:22.619Z,8.67
2018-09-28T20:55:56.217Z,8.97
2018-09-28T20:58:30.381Z,11.93
2018-09-28T21:01:04.067Z,9.67
2018-09-28T21:03:37.722Z,9.17
2018-09-28T21:06:11.337Z,7.93
2018-09-28T21:08:45.164Z,6.70
2018-09-28T21:11:19.911Z,8.83
2018-09-28T21:13:54.646Z,11.80
2018-09-28T21:16:28.240Z,6.27
2018-09-28T21:19:01.946Z,8.80
2018-09-28T21:21:35.658Z,7.87
2018-09-28T21:24:09.280Z,7.37
2018-09-28T21:26:42.855Z,9.20
2018-09-28T21:29:16.511Z,6.37
2018-09-28T21:31:50.140Z,6.97
2018-09-28T21:34:23.805Z,8.60
2018-09-28T21:36:57.534Z,9.07
2018-09-28T21:39:31.184Z,12.07
2018-09-28T21:42:05.129Z,8.93
2018-09-28T21:44:38.706Z,10.13
2018-09-28T21:47:12.339Z,9.60
2018-09-28T21:49:46.508Z,18.47
2018-09-28T21:52:20.135Z,13.57
2018-09-28T21:54:53.704Z,11.97
2018-09-28T21:57:27.277Z,13.00
2018-09-28T22:00:00.848Z,15.87
2018-09-28T22:02:34.488Z,12.17
2018-09-28T22:05:08.109Z,11.57
2018-09-28T22:07:41.718Z,8.53
2018-09-28T22:10:15.322Z,7.80
2018-09-28T22:12:49.026Z,9.17
2018-09-28T22:15:22.671Z,6.17
2018-09-28T22:17:56.449Z,9.27
2018-09-28T22:20:30.386Z,8.63
2018-09-28T22:23:04.026Z,7.73
2018-09-28T22:25:37.612Z,6.23
2018-09-28T22:28:11.238Z,8.13
2018-09-28T22:30:44.848Z,5.53
2018-09-28T22:33:18.461Z,14.93
2018-09-28T22:35:52.241Z,3.67
2018-09-28T22:38:27.393Z,7.77
2018-09-28T22:41:01.120Z,7.53
2018-09-28T22:43:34.838Z,6.33
2018-09-28T22:46:08.564Z,7.20
2018-09-28T22:48:42.184Z,5.30
2018-09-28T22:51:15.745Z,5.67
2018-09-28T22:53:49.460Z,6.27
2018-09-28T22:56:23.032Z,7.87
2018-09-28T22:58:56.645Z,8.23
2018-09-28T23:01:30.231Z,7.10
2018-09-28T23:04:03.921Z,6.63
2018-09-28T23:06:37.506Z,4.77
2018-09-28T23:09:11.105Z,6.67
2018-09-28T23:11:44.819Z,9.13
2018-09-28T23:14:18.438Z,9.63
2018-09-28T23:16:52.104Z,24.40
2018-09-28T23:19:25.742Z,12.07
2018-09-28T23:21:59.324Z,31.17
2018-09-28T23:24:32.932Z,28.57
2018-09-28T23:27:06.641Z,11.13
2018-09-28T23:29:40.357Z,21.60
2018-09-28T23:32:13.956Z,7.60
2018-09-28T23:34:47.566Z,6.50
2018-09-28T23:37:21.290Z,6.37
2018-09-28T23:39:54.970Z,4.63
2018-09-28T23:42:28.569Z,6.47
2018-09-28T23:45:02.214Z,6.30
2018-09-28T23:47:35.869Z,5.07
2018-09-28T23:50:09.461Z,5.93
2018-09-28T23:52:43.055Z,4.83
2018-09-28T23:55:16.614Z,5.07
2018-09-28T23:57:50.198Z,7.37
